Terminal Aerodrome Forecast
Issued by NWS

Home | Current Version | Previous Version | Graphics & Text | Print | Product List | Glossary On
Versions: 1 2 3 4 5 6 7 8 9 10 11 12 13 14 15 16
000
FTUS43 KTOP 282200 AAA
TAFMHK
TAF AMD
KMHK 282217Z 2822/2918 26012G19KT P6SM SCT250
     FM290000 28009KT P6SM FEW250
     FM290300 32012KT P6SM FEW250
     FM290900 34014G20KT P6SM BKN020=

USA.gov is the U.S. government's official web portal to all federal, state and local government web resources and services.